sensor_id;sensor_type;location;lat;lon;timestamp;temperature;humidity
17986;DHT22;9118;48.122;11.546;2023-04-24T00:00:03;12.70;99.90
17986;DHT22;9118;48.122;11.546;2023-04-24T00:02:40;12.70;99.90
17986;DHT22;9118;48.122;11.546;2023-04-24T00:05:14;13.30;99.90
17986;DHT22;9118;48.122;11.546;2023-04-24T00:08:04;12.70;99.90
17986;DHT22;9118;48.122;11.546;2023-04-24T00:10:32;12.60;99.90
17986;DHT22;9118;48.122;11.546;2023-04-24T00:13:08;12.70;99.90
17986;DHT22;9118;48.122;11.546;2023-04-24T00:15:41;13.50;99.90
17986;DHT22;9118;48.122;11.546;2023-04-24T00:18:08;12.90;99.90
17986;DHT22;9118;48.122;11.546;2023-04-24T00:20:36;12.60;99.90
17986;DHT22;9118;48.122;11.546;2023-04-24T00:23:06;12.60;99.90
17986;DHT22;9118;48.122;11.546;2023-04-24T00:25:36;12.60;99.90
17986;DHT22;9118;48.122;11.546;2023-04-24T00:28:04;12.60;99.90
17986;DHT22;9118;48.122;11.546;2023-04-24T00:30:31;12.50;99.90
17986;DHT22;9118;48.122;11.546;2023-04-24T00:32:58;12.50;99.90
17986;DHT22;9118;48.122;11.546;2023-04-24T00:35:26;12.50;99.90
17986;DHT22;9118;48.122;11.546;2023-04-24T00:37:54;12.60;99.90
17986;DHT22;9118;48.122;11.546;2023-04-24T00:40:23;12.60;99.90
17986;DHT22;9118;48.122;11.546;2023-04-24T00:42:51;13.10;99.90
17986;DHT22;9118;48.122;11.546;2023-04-24T00:45:19;12.60;99.90
17986;DHT22;9118;48.122;11.546;2023-04-24T00:47:48;12.50;99.90
17986;DHT22;9118;48.122;11.546;2023-04-24T00:50:19;12.40;99.90
17986;DHT22;9118;48.122;11.546;2023-04-24T00:52:49;12.40;99.90
17986;DHT22;9118;48.122;11.546;2023-04-24T00:55:17;12.40;99.90
17986;DHT22;9118;48.122;11.546;2023-04-24T00:57:46;12.20;99.90
17986;DHT22;9118;48.122;11.546;2023-04-24T01:00:17;12.20;99.90
17986;DHT22;9118;48.122;11.546;2023-04-24T01:02:45;12.20;99.90
17986;DHT22;9118;48.122;11.546;2023-04-24T01:05:13;12.20;99.90
17986;DHT22;9118;48.122;11.546;2023-04-24T01:07:42;12.30;99.90
17986;DHT22;9118;48.122;11.546;2023-04-24T01:10:11;12.20;99.90
17986;DHT22;9118;48.122;11.546;2023-04-24T01:12:39;11.60;99.90
17986;DHT22;9118;48.122;11.546;2023-04-24T01:15:10;12.30;99.90
17986;DHT22;9118;48.122;11.546;2023-04-24T01:17:38;12.30;99.90
17986;DHT22;9118;48.122;11.546;2023-04-24T01:20:07;12.30;99.90
17986;DHT22;9118;48.122;11.546;2023-04-24T01:22:36;12.30;99.90
17986;DHT22;9118;48.122;11.546;2023-04-24T01:25:04;12.20;99.90
17986;DHT22;9118;48.122;11.546;2023-04-24T01:27:33;12.20;99.90
17986;DHT22;9118;48.122;11.546;2023-04-24T01:30:01;12.20;99.90
17986;DHT22;9118;48.122;11.546;2023-04-24T01:32:29;12.00;99.90
17986;DHT22;9118;48.122;11.546;2023-04-24T01:34:57;12.20;99.90
17986;DHT22;9118;48.122;11.546;2023-04-24T01:37:24;12.10;99.90
17986;DHT22;9118;48.122;11.546;2023-04-24T01:39:53;12.00;99.90
17986;DHT22;9118;48.122;11.546;2023-04-24T01:42:21;12.00;99.90
17986;DHT22;9118;48.122;11.546;2023-04-24T01:44:50;12.00;99.90
17986;DHT22;9118;48.122;11.546;2023-04-24T01:47:20;12.00;99.90
17986;DHT22;9118;48.122;11.546;2023-04-24T01:49:48;12.00;99.90
17986;DHT22;9118;48.122;11.546;2023-04-24T01:52:17;12.00;99.90
17986;DHT22;9118;48.122;11.546;2023-04-24T01:54:45;13.20;99.90
17986;DHT22;9118;48.122;11.546;2023-04-24T01:57:25;12.00;99.90
17986;DHT22;9118;48.122;11.546;2023-04-24T01:59:52;11.90;99.90
17986;DHT22;9118;48.122;11.546;2023-04-24T02:02:20;11.90;99.90
17986;DHT22;9118;48.122;11.546;2023-04-24T02:04:49;11.90;99.90
17986;DHT22;9118;48.122;11.546;2023-04-24T02:07:19;11.90;99.90
17986;DHT22;9118;48.122;11.546;2023-04-24T02:09:46;12.00;99.90
17986;DHT22;9118;48.122;11.546;2023-04-24T02:12:14;11.90;99.90
17986;DHT22;9118;48.122;11.546;2023-04-24T02:14:44;12.00;99.90
17986;DHT22;9118;48.122;11.546;2023-04-24T02:17:11;11.90;99.90
17986;DHT22;9118;48.122;11.546;2023-04-24T02:19:39;12.00;99.90
17986;DHT22;9118;48.122;11.546;2023-04-24T02:22:06;11.90;99.90
17986;DHT22;9118;48.122;11.546;2023-04-24T02:24:34;11.00;99.90
17986;DHT22;9118;48.122;11.546;2023-04-24T02:27:01;11.90;99.90
17986;DHT22;9118;48.122;11.546;2023-04-24T02:29:28;12.60;99.90
17986;DHT22;9118;48.122;11.546;2023-04-24T02:31:58;11.90;99.90
17986;DHT22;9118;48.122;11.546;2023-04-24T02:34:25;11.90;99.90
17986;DHT22;9118;48.122;11.546;2023-04-24T02:36:52;11.90;99.90
17986;DHT22;9118;48.122;11.546;2023-04-24T02:39:20;12.80;99.90
17986;DHT22;9118;48.122;11.546;2023-04-24T02:41:48;13.90;99.90
17986;DHT22;9118;48.122;11.546;2023-04-24T02:44:15;11.70;99.90
17986;DHT22;9118;48.122;11.546;2023-04-24T02:46:43;11.90;99.90
17986;DHT22;9118;48.122;11.546;2023-04-24T02:49:14;11.90;99.90
17986;DHT22;9118;48.122;11.546;2023-04-24T02:51:42;11.90;99.90
17986;DHT22;9118;48.122;11.546;2023-04-24T02:54:09;11.20;99.90
17986;DHT22;9118;48.122;11.546;2023-04-24T02:56:37;11.80;99.90
17986;DHT22;9118;48.122;11.546;2023-04-24T02:59:04;11.70;99.90
17986;DHT22;9118;48.122;11.546;2023-04-24T03:01:31;11.70;99.90
17986;DHT22;9118;48.122;11.546;2023-04-24T03:03:59;10.60;99.90
17986;DHT22;9118;48.122;11.546;2023-04-24T03:06:27;11.60;99.90
17986;DHT22;9118;48.122;11.546;2023-04-24T03:08:58;12.00;99.90
17986;DHT22;9118;48.122;11.546;2023-04-24T03:11:26;11.70;99.90
17986;DHT22;9118;48.122;11.546;2023-04-24T03:13:54;11.70;99.90
17986;DHT22;9118;48.122;11.546;2023-04-24T03:16:21;11.70;99.90
17986;DHT22;9118;48.122;11.546;2023-04-24T03:18:48;11.70;99.90
17986;DHT22;9118;48.122;11.546;2023-04-24T03:21:15;11.70;99.90
17986;DHT22;9118;48.122;11.546;2023-04-24T03:23:44;11.70;99.90
17986;DHT22;9118;48.122;11.546;2023-04-24T03:26:11;11.70;99.90
17986;DHT22;9118;48.122;11.546;2023-04-24T03:28:38;11.70;99.90
17986;DHT22;9118;48.122;11.546;2023-04-24T03:31:06;11.70;99.90
17986;DHT22;9118;48.122;11.546;2023-04-24T03:33:33;11.60;99.90
17986;DHT22;9118;48.122;11.546;2023-04-24T03:36:01;11.60;99.90
17986;DHT22;9118;48.122;11.546;2023-04-24T03:38:30;11.60;99.90
17986;DHT22;9118;48.122;11.546;2023-04-24T03:40:59;11.50;99.90
17986;DHT22;9118;48.122;11.546;2023-04-24T03:43:26;11.50;99.90
17986;DHT22;9118;48.122;11.546;2023-04-24T03:45:54;12.20;99.90
17986;DHT22;9118;48.122;11.546;2023-04-24T03:48:21;11.50;99.90
17986;DHT22;9118;48.122;11.546;2023-04-24T03:50:48;11.60;99.90
17986;DHT22;9118;48.122;11.546;2023-04-24T03:53:16;11.50;99.90
17986;DHT22;9118;48.122;11.546;2023-04-24T03:55:43;11.50;99.90
17986;DHT22;9118;48.122;11.546;2023-04-24T03:58:12;11.50;99.90
17986;DHT22;9118;48.122;11.546;2023-04-24T04:00:40;11.50;99.90
17986;DHT22;9118;48.122;11.546;2023-04-24T04:03:07;11.50;99.90
17986;DHT22;9118;48.122;11.546;2023-04-24T04:05:34;11.50;99.90
17986;DHT22;9118;48.122;11.546;2023-04-24T04:08:01;11.70;99.90
17986;DHT22;9118;48.122;11.546;2023-04-24T04:10:28;11.50;99.90
17986;DHT22;9118;48.122;11.546;2023-04-24T04:12:55;11.50;99.90
17986;DHT22;9118;48.122;11.546;2023-04-24T04:15:24;11.60;99.90
17986;DHT22;9118;48.122;11.546;2023-04-24T04:17:52;12.10;99.90
17986;DHT22;9118;48.122;11.546;2023-04-24T04:20:19;11.50;99.90
17986;DHT22;9118;48.122;11.546;2023-04-24T04:22:46;11.50;99.90
17986;DHT22;9118;48.122;11.546;2023-04-24T04:25:13;11.50;99.90
17986;DHT22;9118;48.122;11.546;2023-04-24T04:27:41;11.50;99.90
17986;DHT22;9118;48.122;11.546;2023-04-24T04:30:09;11.40;99.90
17986;DHT22;9118;48.122;11.546;2023-04-24T04:32:38;11.10;99.90
17986;DHT22;9118;48.122;11.546;2023-04-24T04:35:05;11.40;99.90
17986;DHT22;9118;48.122;11.546;2023-04-24T04:37:35;11.30;99.90
17986;DHT22;9118;48.122;11.546;2023-04-24T04:40:04;11.40;99.90
17986;DHT22;9118;48.122;11.546;2023-04-24T04:42:33;11.30;99.90
17986;DHT22;9118;48.122;11.546;2023-04-24T04:45:00;11.30;99.90
17986;DHT22;9118;48.122;11.546;2023-04-24T04:47:30;11.40;99.90
17986;DHT22;9118;48.122;11.546;2023-04-24T04:49:59;11.40;99.90
17986;DHT22;9118;48.122;11.546;2023-04-24T04:52:26;11.40;99.90
17986;DHT22;9118;48.122;11.546;2023-04-24T04:54:53;13.90;99.90
17986;DHT22;9118;48.122;11.546;2023-04-24T04:57:22;11.50;99.90
17986;DHT22;9118;48.122;11.546;2023-04-24T04:59:49;11.10;99.90
17986;DHT22;9118;48.122;11.546;2023-04-24T05:02:18;11.40;99.90
17986;DHT22;9118;48.122;11.546;2023-04-24T05:04:46;11.80;99.90
17986;DHT22;9118;48.122;11.546;2023-04-24T05:07:15;11.90;99.90
17986;DHT22;9118;48.122;11.546;2023-04-24T05:09:42;11.40;99.90
17986;DHT22;9118;48.122;11.546;2023-04-24T05:12:13;12.10;99.90
17986;DHT22;9118;48.122;11.546;2023-04-24T05:14:43;11.50;99.90
17986;DHT22;9118;48.122;11.546;2023-04-24T05:17:24;11.50;99.90
17986;DHT22;9118;48.122;11.546;2023-04-24T05:19:51;11.50;99.90
17986;DHT22;9118;48.122;11.546;2023-04-24T05:22:20;11.60;99.90
17986;DHT22;9118;48.122;11.546;2023-04-24T05:24:47;11.60;99.90
17986;DHT22;9118;48.122;11.546;2023-04-24T05:27:14;11.60;99.90
17986;DHT22;9118;48.122;11.546;2023-04-24T05:29:41;11.50;99.90
17986;DHT22;9118;48.122;11.546;2023-04-24T05:32:09;11.50;99.90
17986;DHT22;9118;48.122;11.546;2023-04-24T05:34:36;11.60;99.90
17986;DHT22;9118;48.122;11.546;2023-04-24T05:37:04;11.50;99.90
17986;DHT22;9118;48.122;11.546;2023-04-24T05:39:46;11.50;99.90
17986;DHT22;9118;48.122;11.546;2023-04-24T05:42:13;11.40;99.90
17986;DHT22;9118;48.122;11.546;2023-04-24T05:44:40;11.40;99.90
17986;DHT22;9118;48.122;11.546;2023-04-24T05:47:08;11.40;99.90
17986;DHT22;9118;48.122;11.546;2023-04-24T05:49:35;11.40;99.90
17986;DHT22;9118;48.122;11.546;2023-04-24T05:52:02;11.40;99.90
17986;DHT22;9118;48.122;11.546;2023-04-24T05:54:31;11.30;99.90
17986;DHT22;9118;48.122;11.546;2023-04-24T05:56:59;11.30;99.90
17986;DHT22;9118;48.122;11.546;2023-04-24T05:59:30;11.40;99.90
17986;DHT22;9118;48.122;11.546;2023-04-24T06:01:57;11.50;99.90
17986;DHT22;9118;48.122;11.546;2023-04-24T06:04:24;11.60;99.90
17986;DHT22;9118;48.122;11.546;2023-04-24T06:06:51;11.50;99.90
17986;DHT22;9118;48.122;11.546;2023-04-24T06:09:21;11.70;99.90
17986;DHT22;9118;48.122;11.546;2023-04-24T06:11:49;11.90;99.90
17986;DHT22;9118;48.122;11.546;2023-04-24T06:14:20;11.90;99.90
17986;DHT22;9118;48.122;11.546;2023-04-24T06:16:48;12.00;99.90
17986;DHT22;9118;48.122;11.546;2023-04-24T06:19:17;12.10;99.90
17986;DHT22;9118;48.122;11.546;2023-04-24T06:21:44;12.20;99.90
17986;DHT22;9118;48.122;11.546;2023-04-24T06:24:14;12.20;99.90
17986;DHT22;9118;48.122;11.546;2023-04-24T06:26:42;12.10;99.90
17986;DHT22;9118;48.122;11.546;2023-04-24T06:29:10;12.10;99.90
17986;DHT22;9118;48.122;11.546;2023-04-24T06:31:40;12.10;99.90
17986;DHT22;9118;48.122;11.546;2023-04-24T06:34:07;12.70;99.90
17986;DHT22;9118;48.122;11.546;2023-04-24T06:36:35;11.90;99.90
17986;DHT22;9118;48.122;11.546;2023-04-24T06:39:03;12.50;99.90
17986;DHT22;9118;48.122;11.546;2023-04-24T06:41:31;12.60;99.90
17986;DHT22;9118;48.122;11.546;2023-04-24T06:43:58;12.60;99.90
17986;DHT22;9118;48.122;11.546;2023-04-24T06:46:25;12.60;99.90
17986;DHT22;9118;48.122;11.546;2023-04-24T06:48:54;12.60;99.90
17986;DHT22;9118;48.122;11.546;2023-04-24T06:51:23;12.60;99.90
17986;DHT22;9118;48.122;11.546;2023-04-24T06:53:51;13.00;99.90
17986;DHT22;9118;48.122;11.546;2023-04-24T06:56:19;12.50;99.90
17986;DHT22;9118;48.122;11.546;2023-04-24T06:58:46;12.60;99.90
17986;DHT22;9118;48.122;11.546;2023-04-24T07:01:13;12.60;99.90
17986;DHT22;9118;48.122;11.546;2023-04-24T07:03:40;12.50;99.90
17986;DHT22;9118;48.122;11.546;2023-04-24T07:06:09;12.50;99.90
17986;DHT22;9118;48.122;11.546;2023-04-24T07:08:37;12.60;99.90
17986;DHT22;9118;48.122;11.546;2023-04-24T07:11:04;12.80;99.90
17986;DHT22;9118;48.122;11.546;2023-04-24T07:13:31;11.20;99.90
17986;DHT22;9118;48.122;11.546;2023-04-24T07:16:00;12.90;99.90
17986;DHT22;9118;48.122;11.546;2023-04-24T07:18:28;12.80;99.90
17986;DHT22;9118;48.122;11.546;2023-04-24T07:21:05;12.60;99.90
17986;DHT22;9118;48.122;11.546;2023-04-24T07:23:34;12.40;99.90
17986;DHT22;9118;48.122;11.546;2023-04-24T07:26:19;12.90;99.90
17986;DHT22;9118;48.122;11.546;2023-04-24T07:29:03;12.60;99.90
17986;DHT22;9118;48.122;11.546;2023-04-24T07:31:30;12.50;99.90
17986;DHT22;9118;48.122;11.546;2023-04-24T07:33:58;12.60;99.90
17986;DHT22;9118;48.122;11.546;2023-04-24T07:36:26;12.70;99.90
17986;DHT22;9118;48.122;11.546;2023-04-24T07:38:55;12.60;99.90
17986;DHT22;9118;48.122;11.546;2023-04-24T07:41:23;12.70;99.90
17986;DHT22;9118;48.122;11.546;2023-04-24T07:43:51;12.50;99.90
17986;DHT22;9118;48.122;11.546;2023-04-24T07:46:20;12.30;99.90
17986;DHT22;9118;48.122;11.546;2023-04-24T07:48:49;12.40;99.90
17986;DHT22;9118;48.122;11.546;2023-04-24T07:51:31;12.60;99.90
17986;DHT22;9118;48.122;11.546;2023-04-24T07:54:34;12.60;99.90
17986;DHT22;9118;48.122;11.546;2023-04-24T08:00:18;12.50;99.90
17986;DHT22;9118;48.122;11.546;2023-04-24T08:02:49;12.30;99.90
17986;DHT22;9118;48.122;11.546;2023-04-24T08:05:38;15.10;99.90
17986;DHT22;9118;48.122;11.546;2023-04-24T08:08:25;13.00;99.90
17986;DHT22;9118;48.122;11.546;2023-04-24T08:10:56;12.50;99.90
17986;DHT22;9118;48.122;11.546;2023-04-24T08:13:24;11.00;99.90
17986;DHT22;9118;48.122;11.546;2023-04-24T08:15:53;12.20;99.90
17986;DHT22;9118;48.122;11.546;2023-04-24T08:18:20;10.90;99.90
17986;DHT22;9118;48.122;11.546;2023-04-24T08:20:56;12.20;99.90
17986;DHT22;9118;48.122;11.546;2023-04-24T08:23:27;12.30;99.90
17986;DHT22;9118;48.122;11.546;2023-04-24T08:26:17;12.00;99.90
17986;DHT22;9118;48.122;11.546;2023-04-24T08:28:50;11.80;99.90
17986;DHT22;9118;48.122;11.546;2023-04-24T08:31:31;12.10;99.90
17986;DHT22;9118;48.122;11.546;2023-04-24T08:34:04;12.00;99.90
17986;DHT22;9118;48.122;11.546;2023-04-24T08:36:36;11.70;99.90
17986;DHT22;9118;48.122;11.546;2023-04-24T08:39:06;11.80;99.90
17986;DHT22;9118;48.122;11.546;2023-04-24T08:41:37;11.50;99.90
17986;DHT22;9118;48.122;11.546;2023-04-24T08:44:05;11.30;99.90
17986;DHT22;9118;48.122;11.546;2023-04-24T08:46:33;12.20;99.90
17986;DHT22;9118;48.122;11.546;2023-04-24T08:49:05;10.60;99.90
17986;DHT22;9118;48.122;11.546;2023-04-24T08:51:42;11.20;99.90
17986;DHT22;9118;48.122;11.546;2023-04-24T08:54:11;11.30;99.90
17986;DHT22;9118;48.122;11.546;2023-04-24T08:56:43;11.30;99.90
17986;DHT22;9118;48.122;11.546;2023-04-24T08:59:12;11.60;99.90
17986;DHT22;9118;48.122;11.546;2023-04-24T09:01:45;11.30;99.90
17986;DHT22;9118;48.122;11.546;2023-04-24T09:04:19;12.40;99.90
17986;DHT22;9118;48.122;11.546;2023-04-24T09:06:48;11.30;99.90
17986;DHT22;9118;48.122;11.546;2023-04-24T09:09:17;11.30;99.90
17986;DHT22;9118;48.122;11.546;2023-04-24T09:11:50;11.10;99.90
17986;DHT22;9118;48.122;11.546;2023-04-24T09:14:20;11.00;99.90
17986;DHT22;9118;48.122;11.546;2023-04-24T09:17:01;11.10;99.90
17986;DHT22;9118;48.122;11.546;2023-04-24T09:19:31;11.10;99.90
17986;DHT22;9118;48.122;11.546;2023-04-24T09:22:12;11.90;99.90
17986;DHT22;9118;48.122;11.546;2023-04-24T09:24:40;11.30;99.90
17986;DHT22;9118;48.122;11.546;2023-04-24T09:27:11;11.40;99.90
17986;DHT22;9118;48.122;11.546;2023-04-24T09:29:53;11.50;99.90
17986;DHT22;9118;48.122;11.546;2023-04-24T09:32:27;11.80;99.90
17986;DHT22;9118;48.122;11.546;2023-04-24T09:35:11;11.80;99.90
17986;DHT22;9118;48.122;11.546;2023-04-24T09:37:40;11.80;99.90
17986;DHT22;9118;48.122;11.546;2023-04-24T09:40:13;12.80;99.90
17986;DHT22;9118;48.122;11.546;2023-04-24T09:42:56;11.90;99.90
17986;DHT22;9118;48.122;11.546;2023-04-24T09:45:28;12.00;99.90
17986;DHT22;9118;48.122;11.546;2023-04-24T09:47:59;11.70;99.90
17986;DHT22;9118;48.122;11.546;2023-04-24T09:50:33;11.10;99.90
17986;DHT22;9118;48.122;11.546;2023-04-24T09:53:03;11.90;99.90
17986;DHT22;9118;48.122;11.546;2023-04-24T09:55:39;12.60;99.90
17986;DHT22;9118;48.122;11.546;2023-04-24T09:58:14;12.10;99.90
17986;DHT22;9118;48.122;11.546;2023-04-24T10:00:42;12.70;99.90
17986;DHT22;9118;48.122;11.546;2023-04-24T10:03:10;12.70;99.90
17986;DHT22;9118;48.122;11.546;2023-04-24T10:05:38;12.80;99.90
17986;DHT22;9118;48.122;11.546;2023-04-24T10:08:13;13.20;99.90
17986;DHT22;9118;48.122;11.546;2023-04-24T10:10:45;12.70;99.90
17986;DHT22;9118;48.122;11.546;2023-04-24T10:13:16;12.70;99.90
17986;DHT22;9118;48.122;11.546;2023-04-24T10:15:43;12.90;99.90
17986;DHT22;9118;48.122;11.546;2023-04-24T10:18:12;13.90;99.90
17986;DHT22;9118;48.122;11.546;2023-04-24T10:20:40;12.90;99.90
17986;DHT22;9118;48.122;11.546;2023-04-24T10:23:07;12.80;99.90
17986;DHT22;9118;48.122;11.546;2023-04-24T10:25:36;12.90;99.90
17986;DHT22;9118;48.122;11.546;2023-04-24T10:28:04;13.70;99.90
17986;DHT22;9118;48.122;11.546;2023-04-24T10:30:36;13.30;99.90
17986;DHT22;9118;48.122;11.546;2023-04-24T10:33:06;13.70;99.90
17986;DHT22;9118;48.122;11.546;2023-04-24T10:35:39;13.20;99.90
17986;DHT22;9118;48.122;11.546;2023-04-24T10:38:11;13.50;99.90
17986;DHT22;9118;48.122;11.546;2023-04-24T10:40:43;13.20;99.90
17986;DHT22;9118;48.122;11.546;2023-04-24T10:43:11;12.90;99.90
17986;DHT22;9118;48.122;11.546;2023-04-24T10:46:00;13.00;99.90
17986;DHT22;9118;48.122;11.546;2023-04-24T10:48:27;12.40;99.90
17986;DHT22;9118;48.122;11.546;2023-04-24T10:50:59;13.00;99.90
17986;DHT22;9118;48.122;11.546;2023-04-24T10:53:29;12.30;99.90
17986;DHT22;9118;48.122;11.546;2023-04-24T10:56:05;11.20;99.90
17986;DHT22;9118;48.122;11.546;2023-04-24T10:58:50;10.40;99.90
17986;DHT22;9118;48.122;11.546;2023-04-24T11:01:31;10.50;99.90
17986;DHT22;9118;48.122;11.546;2023-04-24T11:04:00;10.60;99.90
17986;DHT22;9118;48.122;11.546;2023-04-24T11:06:32;10.20;99.90
17986;DHT22;9118;48.122;11.546;2023-04-24T11:09:16;10.10;99.90
17986;DHT22;9118;48.122;11.546;2023-04-24T11:11:47;10.50;99.90
17986;DHT22;9118;48.122;11.546;2023-04-24T11:14:17;11.30;99.90
17986;DHT22;9118;48.122;11.546;2023-04-24T11:16:54;11.20;99.90
17986;DHT22;9118;48.122;11.546;2023-04-24T11:19:35;11.20;99.90
17986;DHT22;9118;48.122;11.546;2023-04-24T11:22:15;11.30;99.90
17986;DHT22;9118;48.122;11.546;2023-04-24T11:24:53;11.50;99.90
17986;DHT22;9118;48.122;11.546;2023-04-24T11:27:22;12.50;99.90
17986;DHT22;9118;48.122;11.546;2023-04-24T11:30:02;12.20;99.90
17986;DHT22;9118;48.122;11.546;2023-04-24T11:32:37;11.70;99.90
17986;DHT22;9118;48.122;11.546;2023-04-24T11:35:07;12.00;99.90
17986;DHT22;9118;48.122;11.546;2023-04-24T11:37:40;12.40;99.90
17986;DHT22;9118;48.122;11.546;2023-04-24T11:40:11;12.50;99.90
17986;DHT22;9118;48.122;11.546;2023-04-24T11:42:54;12.40;99.90
17986;DHT22;9118;48.122;11.546;2023-04-24T11:45:25;12.80;99.90
17986;DHT22;9118;48.122;11.546;2023-04-24T11:47:54;12.80;99.90
17986;DHT22;9118;48.122;11.546;2023-04-24T11:50:26;12.80;99.90
17986;DHT22;9118;48.122;11.546;2023-04-24T11:53:07;13.50;99.90
17986;DHT22;9118;48.122;11.546;2023-04-24T11:55:37;13.20;99.90
17986;DHT22;9118;48.122;11.546;2023-04-24T11:58:06;11.60;99.90
17986;DHT22;9118;48.122;11.546;2023-04-24T12:00:54;12.60;99.90
17986;DHT22;9118;48.122;11.546;2023-04-24T12:03:24;13.00;99.90
17986;DHT22;9118;48.122;11.546;2023-04-24T12:06:07;12.50;99.90
17986;DHT22;9118;48.122;11.546;2023-04-24T12:08:39;12.50;99.90
17986;DHT22;9118;48.122;11.546;2023-04-24T12:11:07;12.80;99.90
17986;DHT22;9118;48.122;11.546;2023-04-24T12:13:37;13.30;99.90
17986;DHT22;9118;48.122;11.546;2023-04-24T12:16:05;13.20;99.90
17986;DHT22;9118;48.122;11.546;2023-04-24T12:18:42;13.20;99.90
17986;DHT22;9118;48.122;11.546;2023-04-24T12:21:29;13.20;99.90
17986;DHT22;9118;48.122;11.546;2023-04-24T12:23:58;12.70;99.90
17986;DHT22;9118;48.122;11.546;2023-04-24T12:26:27;13.10;99.90
17986;DHT22;9118;48.122;11.546;2023-04-24T12:29:05;12.90;99.90
17986;DHT22;9118;48.122;11.546;2023-04-24T12:31:34;12.80;99.90
17986;DHT22;9118;48.122;11.546;2023-04-24T12:34:03;13.00;99.90
17986;DHT22;9118;48.122;11.546;2023-04-24T12:36:30;13.30;99.90
17986;DHT22;9118;48.122;11.546;2023-04-24T12:38:58;13.50;99.90
17986;DHT22;9118;48.122;11.546;2023-04-24T12:41:26;13.50;99.90
17986;DHT22;9118;48.122;11.546;2023-04-24T12:44:10;13.70;99.90
17986;DHT22;9118;48.122;11.546;2023-04-24T12:46:38;14.00;99.90
17986;DHT22;9118;48.122;11.546;2023-04-24T12:49:08;14.00;99.90
17986;DHT22;9118;48.122;11.546;2023-04-24T12:51:36;15.40;99.90
17986;DHT22;9118;48.122;11.546;2023-04-24T12:54:07;13.90;99.90
17986;DHT22;9118;48.122;11.546;2023-04-24T12:56:37;14.00;99.90
17986;DHT22;9118;48.122;11.546;2023-04-24T12:59:07;14.50;99.90
17986;DHT22;9118;48.122;11.546;2023-04-24T13:01:34;14.20;99.90
17986;DHT22;9118;48.122;11.546;2023-04-24T13:04:03;14.60;99.90
17986;DHT22;9118;48.122;11.546;2023-04-24T13:06:33;15.10;99.90
17986;DHT22;9118;48.122;11.546;2023-04-24T13:09:03;15.20;99.90
17986;DHT22;9118;48.122;11.546;2023-04-24T13:11:32;15.30;99.90
17986;DHT22;9118;48.122;11.546;2023-04-24T13:14:00;15.60;99.90
17986;DHT22;9118;48.122;11.546;2023-04-24T13:16:27;15.90;99.90
17986;DHT22;9118;48.122;11.546;2023-04-24T13:18:57;15.40;99.90
17986;DHT22;9118;48.122;11.546;2023-04-24T13:21:25;14.50;99.90
17986;DHT22;9118;48.122;11.546;2023-04-24T13:23:55;14.50;99.90
17986;DHT22;9118;48.122;11.546;2023-04-24T13:26:24;14.00;99.90
17986;DHT22;9118;48.122;11.546;2023-04-24T13:28:51;13.80;99.90
17986;DHT22;9118;48.122;11.546;2023-04-24T13:31:18;14.30;99.90
17986;DHT22;9118;48.122;11.546;2023-04-24T13:33:47;14.00;99.90
17986;DHT22;9118;48.122;11.546;2023-04-24T13:36:15;14.50;99.90
17986;DHT22;9118;48.122;11.546;2023-04-24T13:38:49;14.10;99.90
17986;DHT22;9118;48.122;11.546;2023-04-24T13:41:18;14.30;99.90
17986;DHT22;9118;48.122;11.546;2023-04-24T13:43:47;14.30;99.90
17986;DHT22;9118;48.122;11.546;2023-04-24T13:46:15;14.20;99.90
17986;DHT22;9118;48.122;11.546;2023-04-24T13:48:43;14.00;99.90
17986;DHT22;9118;48.122;11.546;2023-04-24T13:51:11;13.90;99.90
17986;DHT22;9118;48.122;11.546;2023-04-24T13:53:39;14.80;99.90
17986;DHT22;9118;48.122;11.546;2023-04-24T13:56:08;14.30;99.90
17986;DHT22;9118;48.122;11.546;2023-04-24T13:58:44;14.50;99.90
17986;DHT22;9118;48.122;11.546;2023-04-24T14:01:13;14.40;99.90
17986;DHT22;9118;48.122;11.546;2023-04-24T14:03:46;14.20;99.90
17986;DHT22;9118;48.122;11.546;2023-04-24T14:06:17;14.30;99.90
17986;DHT22;9118;48.122;11.546;2023-04-24T14:08:51;14.60;99.90
17986;DHT22;9118;48.122;11.546;2023-04-24T14:11:22;14.90;99.90
17986;DHT22;9118;48.122;11.546;2023-04-24T14:14:05;15.20;99.90
17986;DHT22;9118;48.122;11.546;2023-04-24T14:16:35;15.30;99.90
17986;DHT22;9118;48.122;11.546;2023-04-24T14:19:04;15.10;99.90
17986;DHT22;9118;48.122;11.546;2023-04-24T14:21:32;15.00;99.90
17986;DHT22;9118;48.122;11.546;2023-04-24T14:24:00;14.90;99.90
17986;DHT22;9118;48.122;11.546;2023-04-24T14:26:30;15.40;99.90
17986;DHT22;9118;48.122;11.546;2023-04-24T14:28:59;15.70;99.90
17986;DHT22;9118;48.122;11.546;2023-04-24T14:31:51;16.40;99.90
17986;DHT22;9118;48.122;11.546;2023-04-24T14:34:19;16.40;99.90
17986;DHT22;9118;48.122;11.546;2023-04-24T14:36:47;16.10;99.90
17986;DHT22;9118;48.122;11.546;2023-04-24T14:39:17;16.40;99.90
17986;DHT22;9118;48.122;11.546;2023-04-24T14:41:46;16.30;99.90
17986;DHT22;9118;48.122;11.546;2023-04-24T14:44:19;15.50;99.90
17986;DHT22;9118;48.122;11.546;2023-04-24T14:47:06;16.30;99.90
17986;DHT22;9118;48.122;11.546;2023-04-24T14:49:39;15.30;99.90
17986;DHT22;9118;48.122;11.546;2023-04-24T14:52:22;15.20;99.90
17986;DHT22;9118;48.122;11.546;2023-04-24T14:54:52;15.90;99.90
17986;DHT22;9118;48.122;11.546;2023-04-24T14:57:34;14.70;99.90
17986;DHT22;9118;48.122;11.546;2023-04-24T15:00:04;13.80;99.90
17986;DHT22;9118;48.122;11.546;2023-04-24T15:02:37;15.60;99.90
17986;DHT22;9118;48.122;11.546;2023-04-24T15:05:20;15.60;99.90
17986;DHT22;9118;48.122;11.546;2023-04-24T15:07:54;16.30;99.90
17986;DHT22;9118;48.122;11.546;2023-04-24T15:10:24;15.90;99.90
17986;DHT22;9118;48.122;11.546;2023-04-24T15:12:52;15.90;99.90
17986;DHT22;9118;48.122;11.546;2023-04-24T15:15:20;14.80;99.90
17986;DHT22;9118;48.122;11.546;2023-04-24T15:17:53;14.70;99.90
17986;DHT22;9118;48.122;11.546;2023-04-24T15:20:21;15.00;99.90
17986;DHT22;9118;48.122;11.546;2023-04-24T15:22:50;16.30;99.90
17986;DHT22;9118;48.122;11.546;2023-04-24T15:25:22;13.10;99.90
17986;DHT22;9118;48.122;11.546;2023-04-24T15:27:55;15.20;99.90
17986;DHT22;9118;48.122;11.546;2023-04-24T15:30:36;16.10;99.90
17986;DHT22;9118;48.122;11.546;2023-04-24T15:33:08;15.60;99.90
17986;DHT22;9118;48.122;11.546;2023-04-24T15:35:35;15.30;99.90
17986;DHT22;9118;48.122;11.546;2023-04-24T15:38:06;15.10;99.90
17986;DHT22;9118;48.122;11.546;2023-04-24T15:40:36;16.20;99.90
17986;DHT22;9118;48.122;11.546;2023-04-24T15:43:04;16.20;99.90
17986;DHT22;9118;48.122;11.546;2023-04-24T15:45:46;15.70;99.90
17986;DHT22;9118;48.122;11.546;2023-04-24T15:48:34;14.30;99.90
17986;DHT22;9118;48.122;11.546;2023-04-24T15:51:01;14.40;99.90
17986;DHT22;9118;48.122;11.546;2023-04-24T15:53:33;14.50;99.90